createdAt,value
2022-10-03T00:00:40.952Z,11.50
2022-10-03T00:03:12.803Z,11.50
2022-10-03T00:05:43.764Z,11.50
2022-10-03T00:08:10.313Z,11.50
2022-10-03T00:10:36.817Z,11.50
2022-10-03T00:13:21.946Z,11.50
2022-10-03T00:15:51.738Z,11.50
2022-10-03T00:18:37.024Z,11.50
2022-10-03T00:21:09.733Z,11.50
2022-10-03T00:23:45.458Z,11.50
2022-10-03T00:26:28.301Z,11.50
2022-10-03T00:29:09.028Z,11.50
2022-10-03T00:31:50.994Z,11.50
2022-10-03T00:34:24.463Z,11.50
2022-10-03T00:36:56.185Z,11.50
2022-10-03T00:39:37.015Z,11.50
2022-10-03T00:42:07.174Z,11.50
2022-10-03T00:44:52.315Z,11.50
2022-10-03T00:47:38.134Z,11.50
2022-10-03T00:50:23.347Z,11.40
2022-10-03T00:53:04.459Z,11.40
2022-10-03T00:55:35.597Z,11.30
2022-10-03T00:58:08.283Z,11.30
2022-10-03T01:00:35.027Z,11.20
2022-10-03T01:03:19.336Z,11.20
2022-10-03T01:06:04.457Z,11.30
2022-10-03T01:08:46.351Z,11.30
2022-10-03T01:11:15.881Z,11.30
2022-10-03T01:13:46.092Z,11.20
2022-10-03T01:16:21.965Z,11.20
2022-10-03T01:19:02.100Z,11.20
2022-10-03T01:21:34.851Z,11.20
2022-10-03T01:24:10.528Z,11.10
2022-10-03T01:30:23.853Z,11.10
2022-10-03T01:32:50.325Z,11.10
2022-10-03T01:35:26.130Z,11.00
2022-10-03T01:38:05.026Z,11.00
2022-10-03T01:40:36.315Z,11.10
2022-10-03T01:43:11.903Z,11.10
2022-10-03T01:45:46.373Z,11.10
2022-10-03T01:48:12.915Z,11.10
2022-10-03T01:50:46.442Z,11.20
2022-10-03T01:53:19.957Z,11.20
2022-10-03T01:55:52.669Z,11.20
2022-10-03T01:58:22.171Z,11.20
2022-10-03T02:00:54.097Z,11.20
2022-10-03T02:03:21.672Z,11.20
2022-10-03T02:06:08.701Z,11.20
2022-10-03T02:08:54.027Z,11.20
2022-10-03T02:11:47.089Z,11.10
2022-10-03T02:14:28.185Z,11.00
2022-10-03T02:16:59.717Z,11.10
2022-10-03T02:19:27.919Z,11.00
2022-10-03T02:21:55.012Z,11.00
2022-10-03T02:24:29.597Z,11.00
2022-10-03T02:26:58.546Z,11.00
2022-10-03T02:29:29.705Z,11.00
2022-10-03T02:32:06.901Z,11.10
2022-10-03T02:35:11.964Z,11.00
2022-10-03T02:37:46.610Z,11.10
2022-10-03T02:40:24.860Z,11.10
2022-10-03T02:43:10.134Z,11.10
2022-10-03T02:45:55.571Z,11.20
2022-10-03T02:48:51.542Z,11.20
2022-10-03T02:51:35.560Z,11.20
2022-10-03T02:54:20.441Z,11.20
2022-10-03T02:57:02.985Z,11.20
2022-10-03T02:59:32.532Z,11.30
2022-10-03T03:02:25.618Z,11.30
2022-10-03T03:04:56.546Z,11.30
2022-10-03T03:07:45.567Z,11.30
2022-10-03T03:10:30.911Z,11.30
2022-10-03T03:13:10.618Z,11.30
2022-10-03T03:15:44.185Z,11.40
2022-10-03T03:18:28.895Z,11.30
2022-10-03T03:20:58.452Z,11.30
2022-10-03T03:23:44.127Z,11.30
2022-10-03T03:26:39.842Z,11.30
2022-10-03T03:29:18.843Z,11.30
2022-10-03T03:32:04.215Z,11.30
2022-10-03T03:34:51.024Z,11.30
2022-10-03T03:37:23.171Z,11.40
2022-10-03T03:40:08.555Z,11.30
2022-10-03T03:42:43.045Z,11.40
2022-10-03T03:45:13.437Z,11.30
2022-10-03T03:47:54.493Z,11.40
2022-10-03T03:50:32.702Z,11.30
2022-10-03T03:53:05.443Z,11.30
2022-10-03T03:55:46.024Z,11.40
2022-10-03T03:58:13.635Z,11.40
2022-10-03T04:00:43.213Z,11.40
2022-10-03T04:03:09.797Z,11.40
2022-10-03T04:05:46.697Z,11.40
2022-10-03T04:08:32.316Z,11.40
2022-10-03T04:11:01.693Z,11.40
2022-10-03T04:13:47.758Z,11.40
2022-10-03T04:17:08.439Z,11.40
2022-10-03T04:19:42.456Z,11.40
2022-10-03T04:22:12.868Z,11.40
2022-10-03T04:24:39.363Z,11.40
2022-10-03T04:27:08.978Z,11.50
2022-10-03T04:29:38.523Z,11.50
2022-10-03T04:32:23.950Z,11.50
2022-10-03T04:34:50.441Z,11.50
2022-10-03T04:37:35.865Z,11.40
2022-10-03T04:40:05.410Z,11.40
2022-10-03T04:42:39.527Z,11.40
2022-10-03T04:45:24.872Z,11.40
2022-10-03T04:47:52.520Z,11.40
2022-10-03T04:50:28.625Z,11.40
2022-10-03T04:53:15.989Z,11.40
2022-10-03T04:56:06.012Z,11.40
2022-10-03T04:58:55.902Z,11.40
2022-10-03T05:01:29.127Z,11.40
2022-10-03T05:04:10.465Z,11.40
2022-10-03T05:06:55.693Z,11.40
2022-10-03T05:09:40.623Z,11.40
2022-10-03T05:12:10.405Z,11.40
2022-10-03T05:14:39.968Z,11.40
2022-10-03T05:17:12.604Z,11.40
2022-10-03T05:19:41.779Z,11.40
2022-10-03T05:22:12.463Z,11.40
2022-10-03T05:24:59.301Z,11.40
2022-10-03T05:27:37.802Z,11.30
2022-10-03T05:30:04.297Z,11.40
2022-10-03T05:32:41.450Z,11.40
2022-10-03T05:35:26.475Z,11.40
2022-10-03T05:38:00.038Z,11.40
2022-10-03T05:40:27.124Z,11.40
2022-10-03T05:42:56.748Z,11.40
2022-10-03T05:45:26.376Z,11.40
2022-10-03T05:48:08.351Z,11.50
2022-10-03T05:50:57.817Z,11.50
2022-10-03T05:53:27.466Z,11.50
2022-10-03T05:56:00.774Z,11.50
2022-10-03T05:58:35.031Z,11.50
2022-10-03T06:01:01.762Z,11.50
2022-10-03T06:03:37.766Z,11.60
2022-10-03T06:06:11.215Z,11.60
2022-10-03T06:08:41.237Z,11.60
2022-10-03T06:11:20.645Z,11.60
2022-10-03T06:14:07.548Z,11.70
2022-10-03T06:16:53.094Z,11.70
2022-10-03T06:19:19.920Z,11.70
2022-10-03T06:21:46.484Z,11.80
2022-10-03T06:24:16.005Z,11.80
2022-10-03T06:26:42.518Z,11.80
2022-10-03T06:29:27.837Z,11.80
2022-10-03T06:32:13.164Z,11.80
2022-10-03T06:34:47.015Z,11.80
2022-10-03T06:37:32.317Z,11.90
2022-10-03T06:40:12.571Z,11.90
2022-10-03T06:42:48.237Z,11.90
2022-10-03T06:45:31.159Z,12.00
2022-10-03T06:48:27.903Z,12.00
2022-10-03T06:51:00.269Z,12.10
2022-10-03T06:53:26.778Z,12.10
2022-10-03T06:56:02.407Z,12.20
2022-10-03T06:58:42.016Z,12.20
2022-10-03T07:01:11.404Z,12.30
2022-10-03T07:03:44.017Z,12.40
2022-10-03T07:06:12.397Z,12.50
2022-10-03T07:08:38.928Z,12.70
2022-10-03T07:11:07.151Z,12.80
2022-10-03T07:13:39.263Z,12.90
2022-10-03T07:16:26.035Z,13.00
2022-10-03T07:19:12.128Z,13.00
2022-10-03T07:21:57.137Z,13.20
2022-10-03T07:24:44.441Z,13.20
2022-10-03T07:27:23.329Z,13.20
2022-10-03T07:29:58.600Z,13.30
2022-10-03T07:32:28.191Z,13.30
2022-10-03T07:35:13.497Z,13.30
2022-10-03T07:38:02.444Z,13.30
2022-10-03T07:40:34.874Z,13.30
2022-10-03T07:43:20.275Z,13.30
2022-10-03T07:45:47.636Z,13.40
2022-10-03T07:48:25.092Z,13.50
2022-10-03T07:50:59.338Z,13.60
2022-10-03T07:53:36.362Z,13.70
2022-10-03T07:56:09.511Z,13.80
2022-10-03T07:58:55.096Z,13.90
2022-10-03T08:01:30.869Z,14.10
2022-10-03T08:04:16.442Z,14.20
2022-10-03T08:06:56.266Z,14.30
2022-10-03T08:09:38.255Z,14.40
2022-10-03T08:12:26.390Z,14.60
2022-10-03T08:14:52.909Z,14.50
2022-10-03T08:17:28.688Z,14.50
2022-10-03T08:20:01.920Z,14.30
2022-10-03T08:22:32.062Z,14.10
2022-10-03T08:25:02.907Z,13.90
2022-10-03T08:27:39.029Z,13.70
2022-10-03T08:30:06.516Z,13.60
2022-10-03T08:32:36.248Z,13.60
2022-10-03T08:35:06.585Z,13.60
2022-10-03T08:37:51.877Z,13.60
2022-10-03T08:40:37.648Z,13.70
2022-10-03T08:43:22.359Z,13.70
2022-10-03T08:45:52.010Z,13.70
2022-10-03T08:48:22.410Z,13.70
2022-10-03T08:50:55.129Z,13.80
2022-10-03T08:53:37.127Z,13.90
2022-10-03T08:56:07.902Z,14.00
2022-10-03T08:58:46.690Z,14.10
2022-10-03T09:01:26.434Z,14.10
2022-10-03T09:03:53.062Z,14.10
2022-10-03T09:06:24.798Z,14.10
2022-10-03T09:08:54.442Z,14.10
2022-10-03T09:11:30.286Z,14.30
2022-10-03T09:14:14.789Z,14.30
2022-10-03T09:16:45.052Z,14.30
2022-10-03T09:19:35.244Z,14.40
2022-10-03T09:22:01.855Z,14.40
2022-10-03T09:24:31.829Z,14.50
2022-10-03T09:27:02.621Z,14.60
2022-10-03T09:29:48.076Z,14.70
2022-10-03T09:32:33.432Z,14.80
2022-10-03T09:35:18.912Z,14.80
2022-10-03T09:37:54.342Z,14.90
2022-10-03T09:40:30.108Z,14.90
2022-10-03T09:43:16.900Z,15.00
2022-10-03T09:45:46.469Z,15.10
2022-10-03T09:48:15.762Z,15.20
2022-10-03T09:51:00.529Z,15.20
2022-10-03T09:53:47.300Z,15.10
2022-10-03T09:56:26.107Z,15.10
2022-10-03T09:58:58.856Z,15.10
2022-10-03T10:01:40.836Z,15.30
2022-10-03T10:04:54.849Z,15.60
2022-10-03T10:07:40.897Z,15.90
2022-10-03T10:10:17.323Z,16.10
2022-10-03T10:12:56.109Z,16.10
2022-10-03T10:15:28.720Z,16.20
2022-10-03T10:18:04.671Z,16.20
2022-10-03T10:20:39.367Z,16.40
2022-10-03T10:23:20.986Z,16.50
2022-10-03T10:25:53.211Z,16.70
2022-10-03T10:28:19.913Z,16.80
2022-10-03T10:30:46.472Z,17.00
2022-10-03T10:33:12.996Z,16.90
2022-10-03T10:35:51.787Z,16.70
2022-10-03T10:38:27.336Z,16.80
2022-10-03T10:41:12.649Z,16.70
2022-10-03T10:43:58.165Z,16.80
2022-10-03T10:46:24.774Z,16.90
2022-10-03T10:49:06.736Z,16.90
2022-10-03T10:51:41.746Z,16.80
2022-10-03T10:54:17.499Z,16.90
2022-10-03T10:56:50.268Z,16.90
2022-10-03T10:59:35.726Z,16.90
2022-10-03T11:02:08.338Z,17.20
2022-10-03T11:04:35.030Z,17.50
2022-10-03T11:07:12.104Z,17.70
2022-10-03T11:09:38.659Z,17.50
2022-10-03T11:12:23.893Z,17.30
2022-10-03T11:14:56.538Z,17.10
2022-10-03T11:17:27.038Z,17.20
2022-10-03T11:20:02.601Z,17.40
2022-10-03T11:22:48.522Z,17.50
2022-10-03T11:25:33.135Z,17.60
2022-10-03T11:28:08.920Z,18.00
2022-10-03T11:30:54.380Z,18.20
2022-10-03T11:33:29.310Z,18.30
2022-10-03T11:35:55.851Z,18.20
2022-10-03T11:38:25.821Z,17.90
2022-10-03T11:40:52.386Z,17.40
2022-10-03T11:43:31.374Z,17.10
2022-10-03T11:46:05.044Z,16.70
2022-10-03T11:48:42.530Z,16.50
2022-10-03T11:51:10.622Z,16.60
2022-10-03T11:54:29.894Z,16.50
2022-10-03T11:57:08.500Z,16.40
2022-10-03T11:59:46.233Z,16.30
2022-10-03T12:02:14.757Z,16.20
2022-10-03T12:04:58.224Z,16.10
2022-10-03T12:07:46.401Z,16.10
2022-10-03T12:10:30.218Z,16.20
2022-10-03T12:12:58.566Z,16.20
2022-10-03T12:15:30.397Z,16.30
2022-10-03T12:18:17.973Z,16.30
2022-10-03T12:20:54.316Z,16.40
2022-10-03T12:23:26.165Z,16.40
2022-10-03T12:25:53.312Z,16.40
2022-10-03T12:28:27.940Z,16.50
2022-10-03T12:30:57.529Z,16.50
2022-10-03T12:33:40.351Z,16.90
2022-10-03T12:36:09.885Z,17.00
2022-10-03T12:38:55.324Z,17.10
2022-10-03T12:41:54.656Z,16.70
2022-10-03T12:44:44.313Z,16.40
2022-10-03T12:47:24.375Z,16.20
2022-10-03T12:50:07.701Z,16.10
2022-10-03T12:52:38.483Z,16.00
2022-10-03T12:55:20.525Z,16.20
2022-10-03T12:57:54.501Z,16.70
2022-10-03T13:00:22.272Z,17.00
2022-10-03T13:02:58.249Z,17.00
2022-10-03T13:05:30.635Z,17.00
2022-10-03T13:08:16.959Z,17.00
2022-10-03T13:10:47.103Z,16.90
2022-10-03T13:13:52.387Z,16.70
2022-10-03T13:16:27.148Z,16.50
2022-10-03T13:18:56.022Z,16.30
2022-10-03T13:21:45.922Z,16.20
2022-10-03T13:24:20.457Z,16.40
2022-10-03T13:26:55.513Z,16.40
2022-10-03T13:29:34.597Z,16.50
2022-10-03T13:32:04.134Z,16.70
2022-10-03T13:34:31.944Z,16.80
2022-10-03T13:36:58.597Z,16.90
2022-10-03T13:39:26.930Z,16.90
2022-10-03T13:42:13.454Z,17.00
2022-10-03T13:44:40.666Z,17.10
2022-10-03T13:47:10.520Z,16.90
2022-10-03T13:49:38.547Z,17.00
2022-10-03T13:52:23.587Z,17.20
2022-10-03T13:54:50.158Z,17.50
2022-10-03T13:57:17.278Z,17.70
2022-10-03T13:59:50.525Z,17.80
2022-10-03T14:02:27.634Z,17.60
2022-10-03T14:05:04.141Z,17.10
2022-10-03T14:07:45.850Z,16.80
2022-10-03T14:10:31.304Z,16.50
2022-10-03T14:13:10.553Z,16.30
2022-10-03T14:15:51.083Z,16.20
2022-10-03T14:18:33.265Z,16.10
2022-10-03T14:21:08.924Z,16.20
2022-10-03T14:23:41.304Z,16.30
2022-10-03T14:26:11.107Z,16.40
2022-10-03T14:28:40.152Z,16.30
2022-10-03T14:31:15.626Z,16.30
2022-10-03T14:33:47.108Z,16.30
2022-10-03T14:36:13.649Z,16.40
2022-10-03T14:38:58.620Z,16.50
2022-10-03T14:41:28.335Z,16.40
2022-10-03T14:43:55.396Z,16.50
2022-10-03T14:46:23.829Z,16.40
2022-10-03T14:48:51.445Z,16.30
2022-10-03T14:51:36.650Z,16.20
2022-10-03T14:54:23.487Z,16.00
2022-10-03T14:56:51.496Z,15.80
2022-10-03T14:59:17.975Z,15.60
2022-10-03T15:01:49.401Z,15.50
2022-10-03T15:04:34.855Z,15.50
2022-10-03T15:07:02.750Z,15.70
2022-10-03T15:09:33.722Z,15.80
2022-10-03T15:12:03.141Z,16.00
2022-10-03T15:14:31.040Z,16.00
2022-10-03T15:16:57.873Z,16.00
2022-10-03T15:19:28.231Z,16.00
2022-10-03T15:21:54.789Z,15.90
2022-10-03T15:24:25.261Z,15.90
2022-10-03T15:26:54.789Z,15.80
2022-10-03T15:29:21.593Z,15.80
2022-10-03T15:31:51.327Z,15.70
2022-10-03T15:34:17.992Z,15.50
2022-10-03T15:36:46.735Z,15.40
2022-10-03T15:39:33.145Z,15.20
2022-10-03T15:42:08.853Z,15.10
2022-10-03T15:44:39.498Z,15.10
2022-10-03T15:47:07.596Z,15.00
2022-10-03T15:49:36.675Z,14.90
2022-10-03T15:52:07.857Z,14.80
2022-10-03T15:54:38.507Z,14.70
2022-10-03T15:57:05.330Z,14.60
2022-10-03T15:59:34.534Z,14.50
2022-10-03T16:02:03.403Z,14.40
2022-10-03T16:04:30.935Z,14.30
2022-10-03T16:06:57.849Z,14.30
2022-10-03T16:09:31.210Z,14.10
2022-10-03T16:12:03.872Z,14.00
2022-10-03T16:14:31.554Z,14.00
2022-10-03T16:16:58.998Z,13.90
2022-10-03T16:19:31.612Z,13.70
2022-10-03T16:22:18.480Z,13.70
2022-10-03T16:24:58.612Z,13.60
2022-10-03T16:27:26.220Z,13.50
2022-10-03T16:29:53.974Z,13.40
2022-10-03T16:32:22.142Z,13.40
2022-10-03T16:34:48.668Z,13.20
2022-10-03T16:37:16.407Z,13.20
2022-10-03T16:39:43.064Z,13.20
2022-10-03T16:42:11.916Z,13.10
2022-10-03T16:44:47.659Z,13.20
2022-10-03T16:47:14.219Z,13.10
2022-10-03T16:50:38.839Z,13.10
2022-10-03T16:53:07.727Z,13.00
2022-10-03T16:55:36.155Z,12.90
2022-10-03T16:58:10.021Z,12.80
2022-10-03T17:01:03.942Z,12.70
2022-10-03T17:03:46.024Z,12.60
2022-10-03T17:06:29.003Z,12.50
2022-10-03T17:08:55.773Z,12.50
2022-10-03T17:11:22.793Z,12.50
2022-10-03T17:13:51.014Z,12.30
2022-10-03T17:16:27.581Z,12.30
2022-10-03T17:19:03.569Z,12.30
2022-10-03T17:21:30.573Z,12.30
2022-10-03T17:24:06.307Z,12.20
2022-10-03T17:26:33.249Z,12.10
2022-10-03T17:29:02.517Z,12.10
2022-10-03T17:31:44.713Z,12.20
2022-10-03T17:34:24.318Z,12.20
2022-10-03T17:37:14.152Z,12.30
2022-10-03T17:39:46.714Z,12.20
2022-10-03T17:42:31.660Z,12.20
2022-10-03T17:44:59.626Z,12.10
2022-10-03T17:47:33.891Z,12.60
2022-10-03T17:50:00.416Z,13.50
2022-10-03T17:52:26.951Z,13.50
2022-10-03T17:55:03.241Z,14.00
2022-10-03T17:57:36.773Z,14.00
2022-10-03T18:00:08.951Z,13.90
2022-10-03T18:02:35.545Z,13.20
2022-10-03T18:05:12.072Z,12.70
2022-10-03T18:07:39.150Z,12.30
2022-10-03T18:10:05.885Z,12.00
2022-10-03T18:12:33.749Z,11.90
2022-10-03T18:15:16.422Z,11.70
2022-10-03T18:17:49.070Z,11.50
2022-10-03T18:20:15.680Z,11.30
2022-10-03T18:22:43.682Z,11.20
2022-10-03T18:25:33.810Z,11.00
2022-10-03T18:28:04.666Z,10.90
2022-10-03T18:30:33.159Z,10.80
2022-10-03T18:33:01.199Z,10.90
2022-10-03T18:35:31.801Z,10.80
2022-10-03T18:38:04.476Z,10.80
2022-10-03T18:40:32.894Z,10.70
2022-10-03T18:43:00.883Z,10.70
2022-10-03T18:45:31.260Z,10.70
2022-10-03T18:48:14.158Z,10.60
2022-10-03T18:50:58.020Z,10.60
2022-10-03T18:53:28.967Z,10.50
2022-10-03T18:55:58.078Z,10.50
2022-10-03T18:58:25.837Z,10.40
2022-10-03T19:00:53.826Z,10.30
2022-10-03T19:03:22.551Z,10.20
2022-10-03T19:05:50.603Z,10.10
2022-10-03T19:08:17.265Z,10.10
2022-10-03T19:10:49.749Z,10.00
2022-10-03T19:13:25.854Z,9.90
2022-10-03T19:15:58.512Z,9.90
2022-10-03T19:18:29.025Z,9.90
2022-10-03T19:20:56.992Z,9.90
2022-10-03T19:23:27.409Z,9.90
2022-10-03T19:25:58.765Z,9.80
2022-10-03T19:28:28.275Z,9.90
2022-10-03T19:31:13.916Z,9.80
2022-10-03T19:33:44.821Z,9.80
2022-10-03T19:36:14.183Z,9.80
2022-10-03T19:38:40.733Z,9.70
2022-10-03T19:41:16.276Z,9.60
2022-10-03T19:43:42.956Z,9.60
2022-10-03T19:46:11.538Z,9.50
2022-10-03T19:48:39.941Z,9.50
2022-10-03T19:51:11.297Z,9.40
2022-10-03T19:53:41.017Z,9.40
2022-10-03T19:56:09.802Z,9.40
2022-10-03T19:58:36.346Z,9.40
2022-10-03T20:01:08.679Z,9.40
2022-10-03T20:03:37.159Z,9.40
2022-10-03T20:06:19.000Z,9.40
2022-10-03T20:09:04.432Z,9.20
2022-10-03T20:11:30.956Z,9.20
2022-10-03T20:13:58.278Z,9.10
2022-10-03T20:16:25.599Z,9.10
2022-10-03T20:18:53.053Z,9.10
2022-10-03T20:21:20.550Z,9.10
2022-10-03T20:23:47.082Z,9.10
2022-10-03T20:26:17.529Z,9.00
2022-10-03T20:28:44.027Z,9.00
2022-10-03T20:31:10.795Z,9.00
2022-10-03T20:33:37.461Z,8.90
2022-10-03T20:36:05.219Z,8.90
2022-10-03T20:38:56.116Z,8.80
2022-10-03T20:41:43.118Z,8.80
2022-10-03T20:44:17.823Z,8.80
2022-10-03T20:46:45.828Z,8.80
2022-10-03T20:49:19.073Z,8.80
2022-10-03T20:51:51.726Z,8.70
2022-10-03T20:54:19.125Z,8.60
2022-10-03T20:57:04.637Z,8.60
2022-10-03T20:59:44.729Z,8.60
2022-10-03T21:02:14.394Z,8.50
2022-10-03T21:04:48.875Z,8.40
2022-10-03T21:07:15.392Z,8.40
2022-10-03T21:09:46.589Z,8.40
2022-10-03T21:12:20.348Z,8.40
2022-10-03T21:14:57.643Z,8.40
2022-10-03T21:17:24.198Z,8.30
2022-10-03T21:19:51.779Z,8.30
2022-10-03T21:22:19.949Z,8.30
2022-10-03T21:24:52.705Z,8.20
2022-10-03T21:27:19.799Z,8.20
2022-10-03T21:30:02.694Z,8.20
2022-10-03T21:32:36.366Z,8.20
2022-10-03T21:35:10.554Z,8.10
2022-10-03T21:37:45.092Z,8.10
2022-10-03T21:40:11.605Z,8.00
2022-10-03T21:42:41.149Z,8.10
2022-10-03T21:45:11.271Z,8.00
2022-10-03T21:47:40.859Z,8.00
2022-10-03T21:50:07.562Z,8.00
2022-10-03T21:52:34.080Z,8.00
2022-10-03T21:55:04.104Z,8.00
2022-10-03T21:57:36.416Z,7.90
2022-10-03T22:00:12.145Z,7.90
2022-10-03T22:02:53.144Z,7.90
2022-10-03T22:05:34.948Z,7.90
2022-10-03T22:08:12.042Z,7.90
2022-10-03T22:10:38.572Z,7.90
2022-10-03T22:13:06.134Z,7.90
2022-10-03T22:15:35.843Z,7.80
2022-10-03T22:18:03.798Z,7.80
2022-10-03T22:20:30.999Z,7.70
2022-10-03T22:23:13.031Z,7.60
2022-10-03T22:25:42.434Z,7.40
2022-10-03T22:28:27.397Z,7.40
2022-10-03T22:31:00.985Z,7.30
2022-10-03T22:33:36.956Z,7.30
2022-10-03T22:36:03.529Z,7.40
2022-10-03T22:38:31.219Z,7.30
2022-10-03T22:40:59.480Z,7.30
2022-10-03T22:43:26.071Z,7.30
2022-10-03T22:45:52.680Z,7.30
2022-10-03T22:48:20.851Z,7.40
2022-10-03T22:50:47.406Z,7.30
2022-10-03T22:53:15.185Z,7.30
2022-10-03T22:55:46.450Z,7.30
2022-10-03T22:58:13.103Z,7.20
2022-10-03T23:00:39.654Z,7.10
2022-10-03T23:03:10.637Z,7.10
2022-10-03T23:05:37.177Z,7.10
2022-10-03T23:08:03.851Z,7.20
2022-10-03T23:10:45.669Z,7.20
2022-10-03T23:13:30.921Z,7.20
2022-10-03T23:15:59.667Z,7.20
2022-10-03T23:18:29.189Z,7.20
2022-10-03T23:20:58.935Z,7.10
2022-10-03T23:23:34.325Z,7.10
2022-10-03T23:26:15.837Z,7.10
2022-10-03T23:28:52.023Z,7.00
2022-10-03T23:31:37.439Z,7.00
2022-10-03T23:34:04.061Z,7.00
2022-10-03T23:36:30.623Z,7.00
2022-10-03T23:38:59.552Z,7.00
2022-10-03T23:41:28.468Z,7.00
2022-10-03T23:43:55.640Z,7.00
2022-10-03T23:46:22.946Z,6.90
2022-10-03T23:48:50.297Z,6.90
2022-10-03T23:51:18.334Z,6.70
2022-10-03T23:53:46.894Z,6.60
2022-10-03T23:56:33.720Z,6.60
2022-10-03T23:59:00.223Z,6.60
